Wednesday, November 14, 2018, 6:49 AM GMT
Back to Local

CWSA, Sable Island, N. S.

Location: , , Canada Lat: 43.933
Local Time: 6:49 AM GMT ( 6:49 GMT) Lon: -60.017
Time Zone: GMT Elev: 13 ft

Show me the last for .
Show Decoded

2018-11-14 06:28 METAR CWSA 140628Z AUTO 23032G41KT 1 1/4SM BR SCT009 OVC013 13/12 A2945 RMK
                 SLP973 DENSITY ALT 200FT =
2018-11-14 06:22 METAR CWSA 140622Z AUTO 22031G41KT 1 1/4SM BR BKN009 OVC013 13/12 A2945 RMK
                 SLP973 DENSITY ALT 300FT =
2018-11-14 06:21 METAR CWSA 140621Z AUTO 22031G41KT 1 1/4SM BR SCT007 OVC013 13/13 A2944 RMK
                 SLP972 DENSITY ALT 300FT =
2018-11-14 06:00 METAR CWSA 140600Z AUTO 22033G44KT 1 1/4SM BR OVC007 14/13 A2944 RMK SLP972
                 DENSITY ALT 300FT =
2018-11-14 05:38 METAR CWSA 140538Z AUTO 21034G43KT 1 1/4SM BR OVC007 14/13 A2945 RMK SLP973
                 DENSITY ALT 300FT =
2018-11-14 05:14 METAR CWSA 140514Z AUTO 19033G41KT 1 1/4SM -RA BR BKN007 OVC012 14/13 A2945 RMK
                 SLP976 DENSITY ALT 300FT =
2018-11-14 05:11 METAR CWSA 140511Z AUTO 19030G42KT 1 1/4SM BR OVC007 13/13 A2946 RMK SLP977
                 DENSITY ALT 300FT =
2018-11-14 05:00 METAR CWSA 140500Z AUTO 19033G41KT 1 1/4SM -RA BR BKN007 OVC013 13/13 A2946 RMK
                 PRESFR SLP978 DENSITY ALT 300FT =
2018-11-14 04:41 METAR CWSA 140441Z AUTO 19038G46KT 1SM RA BR BKN007 BKN011 OVC025 13/13 A2949
                 RMK PRESFR SLP988 DENSITY ALT 200FT =
2018-11-14 04:39 METAR CWSA 140439Z AUTO 19037G46KT 1SM RA BR SCT007 BKN011 OVC025 13/13 A2949
                 RMK PRESFR SLP988 DENSITY ALT 200FT =
2018-11-14 04:32 METAR CWSA 140432Z AUTO 18031G40KT 1SM RA BR SCT005 BKN009 OVC025 13/13 A2949
                 RMK PRESFR SLP987 DENSITY ALT 200FT =
2018-11-14 04:28 METAR CWSA 140428Z AUTO 19030G40KT 3/4SM -RA BR BKN005 BKN012 OVC023 13/12 A2950
                 RMK SLP991 DENSITY ALT 100FT =
2018-11-14 04:27 METAR CWSA 140427Z AUTO 19028G39KT 3/4SM +RA BR SCT005 BKN010 OVC023 13/12 A2951
                 RMK SLP994 DENSITY ALT 100FT =
2018-11-14 04:26 METAR CWSA 140426Z AUTO 19029G39KT 3/4SM +RA BR BKN005 BKN010 OVC023 13/12 A2951
                 RMK SLP995 DENSITY ALT 100FT =
2018-11-14 04:21 METAR CWSA 140421Z AUTO 18032G41KT 3/4SM +RA BR SCT005 BKN010 BKN026 OVC039
                 13/12 A2951 RMK PRESFR SLP996 DENSITY ALT 100FT =
2018-11-14 04:19 METAR CWSA 140419Z AUTO 18030G44KT 1SM RA BR SCT005 BKN010 BKN030 OVC039 12/12
                 A2951 RMK PRESFR SLP996 DENSITY ALT 100FT =
2018-11-14 04:00 METAR CWSA 140400Z AUTO 19024G44KT 1SM RA BR BKN005 OVC023 12/12 A2955 RMK
                 SLP008 =
2018-11-14 03:00 METAR CWSA 140300Z AUTO 16031G44KT 1 1/4SM RA BR BKN009 OVC014 11/10 A2961 RMK
                 PRESFR SLP027 =
2018-11-14 02:00 METAR CWSA 140200Z AUTO 15031G38KT 2SM -RA BR BKN009 BKN026 OVC036 10/09 A2976
                 RMK PRESFR SLP080 =
2018-11-14 01:45 METAR CWSA 140145Z AUTO 15030G37KT 1 3/4SM -RA BR SCT011 BKN024 BKN035 OVC048
                 10/09 A2979 RMK PRESFR SLP088 =
2018-11-14 01:05 METAR CWSA 140105Z AUTO 14031G37KT 2 1/2SM -RA BR OVC055 09/08 A2987 RMK PRESFR
                 SLP118
2018-11-14 01:00 METAR CWSA 140100Z AUTO 14028G37KT 3SM -RA BR OVC055 09/08 A2988 RMK PRESFR
                 SLP120 =
2018-11-14 00:00 METAR CWSA 140000Z AUTO 15027G33KT 3SM -RA BR BKN065 OVC079 07/06 A3000 RMK
                 PRESFR SLP162 =
2018-11-13 23:35 METAR CWSA 132335Z AUTO 14023G33KT 5SM -RA BR FEW075 OVC088 07/05 A3003 RMK
                 PRESFR SLP171 =
2018-11-13 23:00 METAR CWSA 132300Z AUTO 14023G29KT 9SM -RA OVC080 07/03 A3009 RMK PRESFR SLP192
                 =
2018-11-13 22:31 METAR CWSA 132231Z AUTO 14018G26KT 9SM -RA OVC080 06/02 A3013 RMK PRESFR SLP205
                 =
2018-11-13 22:00 METAR CWSA 132200Z AUTO 14017KT 9SM OVC085 06/00 A3018 RMK PRESFR SLP223 =
2018-11-13 21:20 METAR CWSA 132120Z AUTO 14016KT 9SM OVC075 06/M00 A3021 RMK PRESFR SLP231 =
2018-11-13 21:00 METAR CWSA 132100Z AUTO 16011G16KT 9SM -RA OVC070 06/M00 A3025 RMK PRESFR SLP245
                 =
2018-11-13 20:21 METAR CWSA 132021Z AUTO 18009KT 9SM -RA OVC065 06/M02 A3028 RMK PRESFR SLP257 =
2018-11-13 20:00 METAR CWSA 132000Z AUTO 18009KT 9SM OVC065 06/M02 A3031 RMK SLP265 =
2018-11-13 19:00 METAR CWSA 131900Z AUTO 20008KT 9SM OVC080 06/M02 A3034 RMK PRESFR SLP275 =
2018-11-13 18:00 METAR CWSA 131800Z AUTO 22007KT 220V290 9SM CLR 06/M02 A3034 RMK SLP277 =
2018-11-13 17:00 METAR CWSA 131700Z AUTO 27006KT 9SM SCT110 05/M03 A3036 RMK SLP283 =
2018-11-13 16:00 METAR CWSA 131600Z AUTO 26007KT 240V310 9SM FEW170 SCT200 06/M03 A3036 RMK
                 SLP284 =
2018-11-13 15:00 METAR CWSA 131500Z AUTO 29007KT 9SM OVC090 05/M03 A3041 RMK PRESFR SLP298 =
2018-11-13 14:00 METAR CWSA 131400Z AUTO 29012G17KT 9SM FEW120 04/M03 A3043 RMK SLP307 =
2018-11-13 13:00 METAR CWSA 131300Z AUTO 30011G17KT 9SM FEW170 04/M03 A3042 RMK SLP302 =
2018-11-13 12:00 METAR CWSA 131200Z AUTO 29013KT 9SM CLR 04/M03 A3043 RMK PRESRR SLP305 =
2018-11-13 11:00 METAR CWSA 131100Z AUTO 29011G19KT 9SM FEW028 OVC180 03/M02 A3040 RMK SLP296 =
2018-11-13 10:00 METAR CWSA 131000Z AUTO 29012G20KT 9SM OVC190 03/M02 A3038 RMK SLP289 =
2018-11-13 09:00 METAR CWSA 130900Z AUTO 29015G20KT 9SM FEW027 SCT180 BKN200 03/M03 A3036 RMK
                 SLP284 =
2018-11-13 08:00 METAR CWSA 130800Z AUTO 29016G22KT 9SM FEW027 BKN230 03/M03 A3036 RMK SLP282 =
2018-11-13 07:00 METAR CWSA 130700Z AUTO 30016G22KT 9SM FEW029 SCT230 03/M03 A3035 RMK SLP280 =

Support USWX by starting your Amazon purchase here.